sensor_id;sensor_type;location;lat;lon;timestamp;P1;durP1;ratioP1;P2;durP2;ratioP2
77738;SDS011;66904;59.926;30.404;2023-12-29T00:00:57;0.40;;;0.20;;
77738;SDS011;66904;59.926;30.404;2023-12-29T00:06:08;1.90;;;0.88;;
77738;SDS011;66904;59.926;30.404;2023-12-29T00:11:19;1.48;;;0.50;;
77738;SDS011;66904;59.926;30.404;2023-12-29T00:16:30;1.33;;;0.60;;
77738;SDS011;66904;59.926;30.404;2023-12-29T00:21:41;0.95;;;0.57;;
77738;SDS011;66904;59.926;30.404;2023-12-29T00:26:52;0.93;;;0.40;;
77738;SDS011;66904;59.926;30.404;2023-12-29T00:32:02;0.77;;;0.38;;
77738;SDS011;66904;59.926;30.404;2023-12-29T00:37:15;0.55;;;0.35;;
77738;SDS011;66904;59.926;30.404;2023-12-29T00:42:25;0.98;;;0.43;;
77738;SDS011;66904;59.926;30.404;2023-12-29T00:47:36;0.75;;;0.45;;
77738;SDS011;66904;59.926;30.404;2023-12-29T00:52:47;0.63;;;0.25;;
77738;SDS011;66904;59.926;30.404;2023-12-29T00:57:58;2.58;;;0.32;;
77738;SDS011;66904;59.926;30.404;2023-12-29T01:03:08;0.82;;;0.52;;
77738;SDS011;66904;59.926;30.404;2023-12-29T01:08:19;1.05;;;0.40;;
77738;SDS011;66904;59.926;30.404;2023-12-29T01:13:30;1.63;;;0.68;;
77738;SDS011;66904;59.926;30.404;2023-12-29T01:18:40;1.15;;;0.45;;
77738;SDS011;66904;59.926;30.404;2023-12-29T01:23:51;2.42;;;0.52;;
77738;SDS011;66904;59.926;30.404;2023-12-29T01:29:02;2.38;;;0.75;;
77738;SDS011;66904;59.926;30.404;2023-12-29T01:34:13;1.08;;;0.50;;
77738;SDS011;66904;59.926;30.404;2023-12-29T01:39:24;0.95;;;0.43;;
77738;SDS011;66904;59.926;30.404;2023-12-29T01:44:34;1.70;;;0.70;;
77738;SDS011;66904;59.926;30.404;2023-12-29T01:49:45;1.10;;;0.50;;
77738;SDS011;66904;59.926;30.404;2023-12-29T01:54:58;1.38;;;0.68;;
77738;SDS011;66904;59.926;30.404;2023-12-29T02:00:10;1.70;;;0.73;;
77738;SDS011;66904;59.926;30.404;2023-12-29T02:05:22;1.00;;;0.43;;
77738;SDS011;66904;59.926;30.404;2023-12-29T02:10:35;1.27;;;0.75;;
77738;SDS011;66904;59.926;30.404;2023-12-29T02:15:46;1.40;;;0.30;;
77738;SDS011;66904;59.926;30.404;2023-12-29T02:20:58;1.63;;;0.60;;
77738;SDS011;66904;59.926;30.404;2023-12-29T02:26:09;1.90;;;0.93;;
77738;SDS011;66904;59.926;30.404;2023-12-29T02:31:24;1.35;;;0.70;;
77738;SDS011;66904;59.926;30.404;2023-12-29T02:36:37;1.33;;;0.57;;
77738;SDS011;66904;59.926;30.404;2023-12-29T02:41:52;1.38;;;0.63;;
77738;SDS011;66904;59.926;30.404;2023-12-29T02:47:03;1.63;;;0.73;;
77738;SDS011;66904;59.926;30.404;2023-12-29T02:52:14;3.15;;;1.10;;
77738;SDS011;66904;59.926;30.404;2023-12-29T02:57:25;1.63;;;0.90;;
77738;SDS011;66904;59.926;30.404;2023-12-29T03:02:36;2.00;;;0.93;;
77738;SDS011;66904;59.926;30.404;2023-12-29T03:07:46;1.95;;;0.90;;
77738;SDS011;66904;59.926;30.404;2023-12-29T03:12:58;1.88;;;1.08;;
77738;SDS011;66904;59.926;30.404;2023-12-29T03:18:08;2.65;;;1.38;;
77738;SDS011;66904;59.926;30.404;2023-12-29T03:23:19;2.15;;;1.00;;
77738;SDS011;66904;59.926;30.404;2023-12-29T03:28:30;1.65;;;0.63;;
77738;SDS011;66904;59.926;30.404;2023-12-29T03:33:41;2.42;;;0.90;;
77738;SDS011;66904;59.926;30.404;2023-12-29T03:38:51;2.10;;;1.08;;
77738;SDS011;66904;59.926;30.404;2023-12-29T03:44:02;1.90;;;0.85;;
77738;SDS011;66904;59.926;30.404;2023-12-29T03:49:13;1.83;;;0.73;;
77738;SDS011;66904;59.926;30.404;2023-12-29T03:54:24;2.58;;;1.17;;
77738;SDS011;66904;59.926;30.404;2023-12-29T03:59:37;2.13;;;0.77;;
77738;SDS011;66904;59.926;30.404;2023-12-29T04:04:48;3.25;;;0.70;;
77738;SDS011;66904;59.926;30.404;2023-12-29T04:09:59;2.47;;;0.93;;
77738;SDS011;66904;59.926;30.404;2023-12-29T04:15:10;1.42;;;0.65;;
77738;SDS011;66904;59.926;30.404;2023-12-29T04:20:20;1.33;;;0.63;;
77738;SDS011;66904;59.926;30.404;2023-12-29T04:25:31;2.13;;;0.70;;
77738;SDS011;66904;59.926;30.404;2023-12-29T04:30:42;3.58;;;0.98;;
77738;SDS011;66904;59.926;30.404;2023-12-29T04:35:53;2.75;;;0.98;;
77738;SDS011;66904;59.926;30.404;2023-12-29T04:41:03;1.92;;;0.90;;
77738;SDS011;66904;59.926;30.404;2023-12-29T04:46:14;0.75;;;0.45;;
77738;SDS011;66904;59.926;30.404;2023-12-29T04:51:25;2.08;;;0.80;;
77738;SDS011;66904;59.926;30.404;2023-12-29T04:56:35;1.85;;;0.85;;
77738;SDS011;66904;59.926;30.404;2023-12-29T05:01:46;1.08;;;0.40;;
77738;SDS011;66904;59.926;30.404;2023-12-29T05:06:57;0.88;;;0.40;;
77738;SDS011;66904;59.926;30.404;2023-12-29T05:12:08;1.88;;;0.82;;
77738;SDS011;66904;59.926;30.404;2023-12-29T05:17:18;1.90;;;0.90;;
77738;SDS011;66904;59.926;30.404;2023-12-29T05:22:29;1.35;;;0.65;;
77738;SDS011;66904;59.926;30.404;2023-12-29T05:27:40;1.27;;;0.52;;
77738;SDS011;66904;59.926;30.404;2023-12-29T05:32:51;1.67;;;0.57;;
77738;SDS011;66904;59.926;30.404;2023-12-29T05:38:01;1.10;;;0.38;;
77738;SDS011;66904;59.926;30.404;2023-12-29T05:43:12;1.63;;;0.50;;
77738;SDS011;66904;59.926;30.404;2023-12-29T05:48:25;1.27;;;0.70;;
77738;SDS011;66904;59.926;30.404;2023-12-29T05:53:36;0.70;;;0.25;;
77738;SDS011;66904;59.926;30.404;2023-12-29T05:58:47;1.48;;;0.77;;
77738;SDS011;66904;59.926;30.404;2023-12-29T06:03:58;1.42;;;0.70;;
77738;SDS011;66904;59.926;30.404;2023-12-29T06:09:09;0.82;;;0.38;;
77738;SDS011;66904;59.926;30.404;2023-12-29T06:14:20;1.48;;;0.57;;
77738;SDS011;66904;59.926;30.404;2023-12-29T06:19:31;1.05;;;0.47;;
77738;SDS011;66904;59.926;30.404;2023-12-29T06:24:42;0.60;;;0.35;;
77738;SDS011;66904;59.926;30.404;2023-12-29T06:29:53;1.15;;;0.40;;
77738;SDS011;66904;59.926;30.404;2023-12-29T06:35:04;1.33;;;0.70;;
77738;SDS011;66904;59.926;30.404;2023-12-29T06:40:16;2.05;;;0.65;;
77738;SDS011;66904;59.926;30.404;2023-12-29T06:45:27;1.92;;;1.00;;
77738;SDS011;66904;59.926;30.404;2023-12-29T06:50:38;3.10;;;0.70;;
77738;SDS011;66904;59.926;30.404;2023-12-29T06:55:49;2.67;;;0.80;;
77738;SDS011;66904;59.926;30.404;2023-12-29T07:00:59;1.00;;;0.50;;
77738;SDS011;66904;59.926;30.404;2023-12-29T07:06:10;1.77;;;1.13;;
77738;SDS011;66904;59.926;30.404;2023-12-29T07:11:21;2.15;;;0.85;;
77738;SDS011;66904;59.926;30.404;2023-12-29T07:16:32;1.92;;;0.88;;
77738;SDS011;66904;59.926;30.404;2023-12-29T07:21:43;1.98;;;1.00;;
77738;SDS011;66904;59.926;30.404;2023-12-29T07:26:54;1.50;;;0.50;;
77738;SDS011;66904;59.926;30.404;2023-12-29T07:32:05;2.20;;;0.50;;
77738;SDS011;66904;59.926;30.404;2023-12-29T07:37:16;1.25;;;0.60;;
77738;SDS011;66904;59.926;30.404;2023-12-29T07:42:26;1.60;;;0.60;;
77738;SDS011;66904;59.926;30.404;2023-12-29T07:47:37;1.45;;;0.70;;
77738;SDS011;66904;59.926;30.404;2023-12-29T07:52:48;0.80;;;0.50;;
77738;SDS011;66904;59.926;30.404;2023-12-29T07:57:59;1.73;;;0.73;;
77738;SDS011;66904;59.926;30.404;2023-12-29T08:03:09;1.55;;;0.63;;
77738;SDS011;66904;59.926;30.404;2023-12-29T08:08:20;1.80;;;0.65;;
77738;SDS011;66904;59.926;30.404;2023-12-29T08:13:31;0.77;;;0.50;;
77738;SDS011;66904;59.926;30.404;2023-12-29T08:18:42;1.10;;;0.70;;
77738;SDS011;66904;59.926;30.404;2023-12-29T08:23:52;1.73;;;0.70;;
77738;SDS011;66904;59.926;30.404;2023-12-29T08:29:03;3.83;;;1.27;;
77738;SDS011;66904;59.926;30.404;2023-12-29T08:34:14;1.83;;;0.88;;
77738;SDS011;66904;59.926;30.404;2023-12-29T08:39:25;1.67;;;0.80;;
77738;SDS011;66904;59.926;30.404;2023-12-29T08:44:36;1.58;;;0.73;;
77738;SDS011;66904;59.926;30.404;2023-12-29T08:49:47;2.20;;;0.93;;
77738;SDS011;66904;59.926;30.404;2023-12-29T08:54:59;2.03;;;1.10;;
77738;SDS011;66904;59.926;30.404;2023-12-29T09:00:10;3.22;;;1.35;;
77738;SDS011;66904;59.926;30.404;2023-12-29T09:05:21;1.88;;;0.93;;
77738;SDS011;66904;59.926;30.404;2023-12-29T09:10:31;2.20;;;0.90;;
77738;SDS011;66904;59.926;30.404;2023-12-29T09:15:42;1.70;;;0.73;;
77738;SDS011;66904;59.926;30.404;2023-12-29T09:20:53;2.08;;;0.95;;
77738;SDS011;66904;59.926;30.404;2023-12-29T09:26:04;1.40;;;0.63;;
77738;SDS011;66904;59.926;30.404;2023-12-29T09:31:15;1.45;;;0.80;;
77738;SDS011;66904;59.926;30.404;2023-12-29T09:36:26;4.07;;;1.00;;
77738;SDS011;66904;59.926;30.404;2023-12-29T09:41:37;0.80;;;0.40;;
77738;SDS011;66904;59.926;30.404;2023-12-29T09:46:53;1.88;;;0.63;;
77738;SDS011;66904;59.926;30.404;2023-12-29T09:52:05;2.85;;;1.08;;
77738;SDS011;66904;59.926;30.404;2023-12-29T09:57:18;1.75;;;0.93;;
77738;SDS011;66904;59.926;30.404;2023-12-29T10:02:29;1.98;;;0.70;;
77738;SDS011;66904;59.926;30.404;2023-12-29T10:07:41;2.65;;;1.05;;
77738;SDS011;66904;59.926;30.404;2023-12-29T10:12:53;2.63;;;0.90;;
77738;SDS011;66904;59.926;30.404;2023-12-29T10:18:18;1.48;;;0.82;;
77738;SDS011;66904;59.926;30.404;2023-12-29T10:29:13;1.67;;;0.93;;
77738;SDS011;66904;59.926;30.404;2023-12-29T10:34:24;2.60;;;1.00;;
77738;SDS011;66904;59.926;30.404;2023-12-29T10:40:03;2.30;;;0.98;;
77738;SDS011;66904;59.926;30.404;2023-12-29T10:45:14;1.73;;;0.85;;
77738;SDS011;66904;59.926;30.404;2023-12-29T10:50:25;1.63;;;0.88;;
77738;SDS011;66904;59.926;30.404;2023-12-29T10:55:37;1.08;;;0.63;;
77738;SDS011;66904;59.926;30.404;2023-12-29T11:00:48;3.08;;;0.90;;
77738;SDS011;66904;59.926;30.404;2023-12-29T11:05:59;1.33;;;0.65;;
77738;SDS011;66904;59.926;30.404;2023-12-29T11:11:10;1.90;;;0.93;;
77738;SDS011;66904;59.926;30.404;2023-12-29T11:16:21;2.53;;;0.90;;
77738;SDS011;66904;59.926;30.404;2023-12-29T11:21:34;1.00;;;0.52;;
77738;SDS011;66904;59.926;30.404;2023-12-29T11:26:46;1.80;;;0.88;;
77738;SDS011;66904;59.926;30.404;2023-12-29T11:31:59;2.03;;;0.60;;
77738;SDS011;66904;59.926;30.404;2023-12-29T11:42:34;2.03;;;0.90;;
77738;SDS011;66904;59.926;30.404;2023-12-29T11:47:48;1.80;;;0.90;;
77738;SDS011;66904;59.926;30.404;2023-12-29T11:53:03;3.10;;;1.05;;
77738;SDS011;66904;59.926;30.404;2023-12-29T11:58:24;2.78;;;1.30;;
77738;SDS011;66904;59.926;30.404;2023-12-29T12:03:38;2.30;;;1.15;;
77738;SDS011;66904;59.926;30.404;2023-12-29T12:08:49;1.23;;;0.50;;
77738;SDS011;66904;59.926;30.404;2023-12-29T12:19:56;1.73;;;0.40;;
77738;SDS011;66904;59.926;30.404;2023-12-29T12:25:18;1.98;;;0.82;;
77738;SDS011;66904;59.926;30.404;2023-12-29T12:30:29;2.00;;;0.93;;
77738;SDS011;66904;59.926;30.404;2023-12-29T12:35:40;1.27;;;0.65;;
77738;SDS011;66904;59.926;30.404;2023-12-29T12:40:51;1.63;;;0.73;;
77738;SDS011;66904;59.926;30.404;2023-12-29T12:46:02;0.90;;;0.50;;
77738;SDS011;66904;59.926;30.404;2023-12-29T12:51:14;2.03;;;0.75;;
77738;SDS011;66904;59.926;30.404;2023-12-29T12:56:25;2.53;;;0.98;;
77738;SDS011;66904;59.926;30.404;2023-12-29T13:01:38;1.70;;;0.65;;
77738;SDS011;66904;59.926;30.404;2023-12-29T13:06:49;1.98;;;0.85;;
77738;SDS011;66904;59.926;30.404;2023-12-29T13:12:09;1.08;;;0.57;;
77738;SDS011;66904;59.926;30.404;2023-12-29T13:17:21;0.70;;;0.43;;
77738;SDS011;66904;59.926;30.404;2023-12-29T13:22:33;1.15;;;0.52;;
77738;SDS011;66904;59.926;30.404;2023-12-29T13:27:45;1.65;;;0.40;;
77738;SDS011;66904;59.926;30.404;2023-12-29T13:32:56;1.90;;;0.77;;
77738;SDS011;66904;59.926;30.404;2023-12-29T13:38:11;0.95;;;0.38;;
77738;SDS011;66904;59.926;30.404;2023-12-29T13:43:28;1.33;;;0.70;;
77738;SDS011;66904;59.926;30.404;2023-12-29T13:48:42;1.23;;;0.57;;
77738;SDS011;66904;59.926;30.404;2023-12-29T13:53:59;1.52;;;0.68;;
77738;SDS011;66904;59.926;30.404;2023-12-29T13:59:11;1.42;;;0.85;;
77738;SDS011;66904;59.926;30.404;2023-12-29T14:04:21;1.67;;;0.80;;
77738;SDS011;66904;59.926;30.404;2023-12-29T14:09:32;1.08;;;0.47;;
77738;SDS011;66904;59.926;30.404;2023-12-29T14:14:44;1.40;;;0.75;;
77738;SDS011;66904;59.926;30.404;2023-12-29T14:19:55;1.73;;;0.75;;
77738;SDS011;66904;59.926;30.404;2023-12-29T14:25:06;1.10;;;0.65;;
77738;SDS011;66904;59.926;30.404;2023-12-29T14:30:18;1.38;;;0.55;;
77738;SDS011;66904;59.926;30.404;2023-12-29T14:35:32;2.38;;;0.90;;
77738;SDS011;66904;59.926;30.404;2023-12-29T14:40:44;2.38;;;1.15;;
77738;SDS011;66904;59.926;30.404;2023-12-29T14:45:55;1.25;;;0.38;;
77738;SDS011;66904;59.926;30.404;2023-12-29T14:51:06;1.83;;;0.95;;
77738;SDS011;66904;59.926;30.404;2023-12-29T14:56:17;1.30;;;0.82;;
77738;SDS011;66904;59.926;30.404;2023-12-29T15:01:28;1.08;;;0.73;;
77738;SDS011;66904;59.926;30.404;2023-12-29T15:06:39;3.15;;;0.70;;
77738;SDS011;66904;59.926;30.404;2023-12-29T15:11:49;0.95;;;0.43;;
77738;SDS011;66904;59.926;30.404;2023-12-29T15:17:02;2.60;;;0.73;;
77738;SDS011;66904;59.926;30.404;2023-12-29T15:22:13;1.15;;;0.43;;
77738;SDS011;66904;59.926;30.404;2023-12-29T15:27:24;1.63;;;0.60;;
77738;SDS011;66904;59.926;30.404;2023-12-29T15:32:35;1.70;;;0.73;;
77738;SDS011;66904;59.926;30.404;2023-12-29T15:37:45;1.95;;;1.08;;
77738;SDS011;66904;59.926;30.404;2023-12-29T15:42:56;2.80;;;1.05;;
77738;SDS011;66904;59.926;30.404;2023-12-29T15:48:07;1.98;;;1.00;;
77738;SDS011;66904;59.926;30.404;2023-12-29T15:53:18;2.53;;;1.17;;
77738;SDS011;66904;59.926;30.404;2023-12-29T15:58:29;1.35;;;0.85;;
77738;SDS011;66904;59.926;30.404;2023-12-29T16:03:40;0.77;;;0.47;;
77738;SDS011;66904;59.926;30.404;2023-12-29T16:08:51;1.63;;;0.63;;
77738;SDS011;66904;59.926;30.404;2023-12-29T16:14:03;1.45;;;0.73;;
77738;SDS011;66904;59.926;30.404;2023-12-29T16:19:14;2.13;;;0.70;;
77738;SDS011;66904;59.926;30.404;2023-12-29T16:24:25;2.50;;;1.00;;
77738;SDS011;66904;59.926;30.404;2023-12-29T16:29:37;1.10;;;0.52;;
77738;SDS011;66904;59.926;30.404;2023-12-29T16:34:48;1.80;;;0.70;;
77738;SDS011;66904;59.926;30.404;2023-12-29T16:39:59;1.15;;;0.75;;
77738;SDS011;66904;59.926;30.404;2023-12-29T16:45:11;2.83;;;1.17;;
77738;SDS011;66904;59.926;30.404;2023-12-29T16:50:22;3.22;;;0.68;;
77738;SDS011;66904;59.926;30.404;2023-12-29T16:55:32;2.08;;;1.00;;
77738;SDS011;66904;59.926;30.404;2023-12-29T17:00:43;1.85;;;0.93;;
77738;SDS011;66904;59.926;30.404;2023-12-29T17:05:55;1.75;;;1.10;;
77738;SDS011;66904;59.926;30.404;2023-12-29T17:11:05;2.92;;;0.82;;
77738;SDS011;66904;59.926;30.404;2023-12-29T17:16:16;1.17;;;0.65;;
77738;SDS011;66904;59.926;30.404;2023-12-29T17:21:28;2.38;;;0.80;;
77738;SDS011;66904;59.926;30.404;2023-12-29T17:26:38;1.20;;;0.50;;
77738;SDS011;66904;59.926;30.404;2023-12-29T17:31:49;2.47;;;0.60;;
77738;SDS011;66904;59.926;30.404;2023-12-29T17:37:00;2.45;;;0.98;;
77738;SDS011;66904;59.926;30.404;2023-12-29T17:42:11;2.03;;;0.80;;
77738;SDS011;66904;59.926;30.404;2023-12-29T17:47:22;1.35;;;0.60;;
77738;SDS011;66904;59.926;30.404;2023-12-29T17:52:33;1.95;;;0.90;;
77738;SDS011;66904;59.926;30.404;2023-12-29T17:57:44;1.58;;;0.57;;
77738;SDS011;66904;59.926;30.404;2023-12-29T18:02:55;1.23;;;0.60;;
77738;SDS011;66904;59.926;30.404;2023-12-29T18:08:06;1.55;;;0.77;;
77738;SDS011;66904;59.926;30.404;2023-12-29T18:13:17;1.88;;;0.80;;
77738;SDS011;66904;59.926;30.404;2023-12-29T18:18:29;1.20;;;0.50;;
77738;SDS011;66904;59.926;30.404;2023-12-29T18:23:40;1.58;;;0.90;;
77738;SDS011;66904;59.926;30.404;2023-12-29T18:28:50;1.65;;;0.57;;
77738;SDS011;66904;59.926;30.404;2023-12-29T18:34:01;1.15;;;0.63;;
77738;SDS011;66904;59.926;30.404;2023-12-29T18:39:12;2.33;;;0.95;;
77738;SDS011;66904;59.926;30.404;2023-12-29T18:44:25;2.70;;;0.90;;
77738;SDS011;66904;59.926;30.404;2023-12-29T18:49:38;1.73;;;0.75;;
77738;SDS011;66904;59.926;30.404;2023-12-29T18:54:49;1.55;;;0.73;;
77738;SDS011;66904;59.926;30.404;2023-12-29T19:00:00;2.80;;;1.00;;
77738;SDS011;66904;59.926;30.404;2023-12-29T19:05:12;2.63;;;0.75;;
77738;SDS011;66904;59.926;30.404;2023-12-29T19:10:23;1.52;;;0.32;;
77738;SDS011;66904;59.926;30.404;2023-12-29T19:15:33;1.27;;;0.40;;
77738;SDS011;66904;59.926;30.404;2023-12-29T19:20:45;2.08;;;0.45;;
77738;SDS011;66904;59.926;30.404;2023-12-29T19:25:56;1.30;;;0.40;;
77738;SDS011;66904;59.926;30.404;2023-12-29T19:31:10;1.15;;;0.50;;
77738;SDS011;66904;59.926;30.404;2023-12-29T19:36:20;1.10;;;0.75;;
77738;SDS011;66904;59.926;30.404;2023-12-29T19:41:32;1.67;;;0.60;;
77738;SDS011;66904;59.926;30.404;2023-12-29T19:46:44;0.88;;;0.32;;
77738;SDS011;66904;59.926;30.404;2023-12-29T19:51:56;0.25;;;0.10;;
77738;SDS011;66904;59.926;30.404;2023-12-29T19:57:08;0.40;;;0.17;;
77738;SDS011;66904;59.926;30.404;2023-12-29T20:02:19;0.45;;;0.30;;
77738;SDS011;66904;59.926;30.404;2023-12-29T20:07:29;1.05;;;0.30;;
77738;SDS011;66904;59.926;30.404;2023-12-29T20:12:40;0.20;;;0.10;;
77738;SDS011;66904;59.926;30.404;2023-12-29T20:17:51;1.35;;;0.60;;
77738;SDS011;66904;59.926;30.404;2023-12-29T20:23:02;0.82;;;0.35;;
77738;SDS011;66904;59.926;30.404;2023-12-29T20:28:13;0.50;;;0.25;;
77738;SDS011;66904;59.926;30.404;2023-12-29T20:33:24;1.48;;;0.40;;
77738;SDS011;66904;59.926;30.404;2023-12-29T20:38:35;1.25;;;0.30;;
77738;SDS011;66904;59.926;30.404;2023-12-29T20:43:46;0.50;;;0.20;;
77738;SDS011;66904;59.926;30.404;2023-12-29T20:48:57;0.70;;;0.22;;
77738;SDS011;66904;59.926;30.404;2023-12-29T20:54:08;0.95;;;0.25;;
77738;SDS011;66904;59.926;30.404;2023-12-29T20:59:19;0.93;;;0.35;;
77738;SDS011;66904;59.926;30.404;2023-12-29T21:04:30;0.50;;;0.20;;
77738;SDS011;66904;59.926;30.404;2023-12-29T21:09:41;0.75;;;0.22;;
77738;SDS011;66904;59.926;30.404;2023-12-29T21:14:52;0.32;;;0.13;;
77738;SDS011;66904;59.926;30.404;2023-12-29T21:20:05;0.70;;;0.15;;
77738;SDS011;66904;59.926;30.404;2023-12-29T21:25:16;0.45;;;0.17;;
77738;SDS011;66904;59.926;30.404;2023-12-29T21:30:27;0.28;;;0.10;;
77738;SDS011;66904;59.926;30.404;2023-12-29T21:35:38;1.33;;;0.50;;
77738;SDS011;66904;59.926;30.404;2023-12-29T21:40:49;0.40;;;0.20;;
77738;SDS011;66904;59.926;30.404;2023-12-29T21:46:03;0.32;;;0.17;;
77738;SDS011;66904;59.926;30.404;2023-12-29T21:51:14;0.45;;;0.20;;
77738;SDS011;66904;59.926;30.404;2023-12-29T21:56:24;0.30;;;0.10;;
77738;SDS011;66904;59.926;30.404;2023-12-29T22:01:42;0.30;;;0.10;;
77738;SDS011;66904;59.926;30.404;2023-12-29T22:06:52;0.40;;;0.20;;
77738;SDS011;66904;59.926;30.404;2023-12-29T22:12:03;0.08;;;0.03;;
77738;SDS011;66904;59.926;30.404;2023-12-29T22:17:14;0.85;;;0.28;;
77738;SDS011;66904;59.926;30.404;2023-12-29T22:22:25;1.38;;;0.28;;
77738;SDS011;66904;59.926;30.404;2023-12-29T22:27:36;0.73;;;0.22;;
77738;SDS011;66904;59.926;30.404;2023-12-29T22:32:47;0.47;;;0.20;;
77738;SDS011;66904;59.926;30.404;2023-12-29T22:37:57;0.03;;;0.00;;
77738;SDS011;66904;59.926;30.404;2023-12-29T22:43:08;0.77;;;0.40;;
77738;SDS011;66904;59.926;30.404;2023-12-29T22:48:19;1.20;;;0.50;;
77738;SDS011;66904;59.926;30.404;2023-12-29T22:53:30;0.85;;;0.32;;
77738;SDS011;66904;59.926;30.404;2023-12-29T22:58:41;0.45;;;0.25;;
77738;SDS011;66904;59.926;30.404;2023-12-29T23:03:52;0.82;;;0.43;;
77738;SDS011;66904;59.926;30.404;2023-12-29T23:09:03;0.52;;;0.20;;
77738;SDS011;66904;59.926;30.404;2023-12-29T23:14:14;0.75;;;0.30;;
77738;SDS011;66904;59.926;30.404;2023-12-29T23:19:27;0.85;;;0.43;;
77738;SDS011;66904;59.926;30.404;2023-12-29T23:24:38;1.17;;;0.40;;
77738;SDS011;66904;59.926;30.404;2023-12-29T23:29:49;1.08;;;0.38;;
77738;SDS011;66904;59.926;30.404;2023-12-29T23:35:00;1.02;;;0.28;;
77738;SDS011;66904;59.926;30.404;2023-12-29T23:40:11;1.05;;;0.32;;
77738;SDS011;66904;59.926;30.404;2023-12-29T23:45:21;0.30;;;0.10;;
77738;SDS011;66904;59.926;30.404;2023-12-29T23:50:32;1.52;;;0.50;;
77738;SDS011;66904;59.926;30.404;2023-12-29T23:55:43;1.35;;;0.50;;
